createdAt,value
2022-11-14T00:01:33.715Z,8.24
2022-11-14T00:04:00.977Z,8.32
2022-11-14T00:06:28.260Z,8.22
2022-11-14T00:08:55.584Z,8.55
2022-11-14T00:11:22.844Z,8.08
2022-11-14T00:13:52.043Z,8.06
2022-11-14T00:16:19.283Z,8.77
2022-11-14T00:18:46.531Z,9.15
2022-11-14T00:21:13.815Z,8.14
2022-11-14T00:23:41.070Z,8.10
2022-11-14T00:26:08.400Z,8.46
2022-11-14T00:28:35.683Z,8.12
2022-11-14T00:31:03.048Z,8.02
2022-11-14T00:33:30.288Z,8.17
2022-11-14T00:35:58.080Z,7.85
2022-11-14T00:38:25.849Z,8.16
2022-11-14T00:40:53.187Z,7.73
2022-11-14T00:43:20.717Z,7.38
2022-11-14T00:45:48.379Z,8.05
2022-11-14T00:48:15.770Z,8.02
2022-11-14T00:50:43.567Z,7.88
2022-11-14T00:53:11.126Z,8.12
2022-11-14T00:55:41.688Z,9.08
2022-11-14T00:58:08.949Z,9.21
2022-11-14T01:00:36.544Z,9.33
2022-11-14T01:03:03.843Z,9.87
2022-11-14T01:05:31.217Z,9.89
2022-11-14T01:07:58.876Z,10.68
2022-11-14T01:10:26.524Z,10.97
2022-11-14T01:12:53.821Z,10.83
2022-11-14T01:15:21.136Z,10.73
2022-11-14T01:17:48.400Z,11.18
2022-11-14T01:20:16.080Z,11.11
2022-11-14T01:22:43.706Z,10.69
2022-11-14T01:25:11.007Z,10.06
2022-11-14T01:27:38.332Z,9.41
2022-11-14T01:30:05.588Z,9.77
2022-11-14T01:32:34.844Z,9.33
2022-11-14T01:35:02.185Z,9.52
2022-11-14T01:37:29.487Z,9.25
2022-11-14T01:39:56.764Z,8.85
2022-11-14T01:42:27.441Z,8.69
2022-11-14T01:44:54.981Z,8.93
2022-11-14T01:47:22.286Z,8.86
2022-11-14T01:49:49.590Z,8.68
2022-11-14T01:52:16.940Z,9.00
2022-11-14T01:54:44.767Z,8.62
2022-11-14T01:57:12.053Z,8.46
2022-11-14T01:59:39.309Z,8.39
2022-11-14T02:02:06.680Z,9.02
2022-11-14T02:04:33.993Z,8.45
2022-11-14T02:07:01.760Z,8.61
2022-11-14T02:09:29.152Z,8.13
2022-11-14T02:11:56.467Z,8.43
2022-11-14T02:14:23.760Z,8.35
2022-11-14T02:17:07.661Z,8.80
2022-11-14T02:19:38.353Z,8.62
2022-11-14T02:22:05.827Z,8.04
2022-11-14T02:24:33.325Z,8.43
2022-11-14T02:27:00.977Z,8.31
2022-11-14T02:29:28.556Z,8.18
2022-11-14T02:31:55.978Z,7.42
2022-11-14T02:34:25.674Z,7.21
2022-11-14T02:36:53.470Z,7.37
2022-11-14T02:39:20.733Z,7.33
2022-11-14T02:41:48.000Z,7.56
2022-11-14T02:44:15.237Z,7.15
2022-11-14T02:46:42.499Z,7.39
2022-11-14T02:49:09.859Z,7.33
2022-11-14T02:51:37.080Z,7.24
2022-11-14T02:54:04.357Z,7.38
2022-11-14T02:56:31.633Z,6.94
2022-11-14T02:58:58.964Z,7.54
2022-11-14T03:01:26.257Z,7.25
2022-11-14T03:03:53.700Z,7.88
2022-11-14T03:06:20.936Z,6.93
2022-11-14T03:08:48.167Z,6.90
2022-11-14T03:11:15.452Z,7.01
2022-11-14T03:13:42.797Z,7.05
2022-11-14T03:16:10.041Z,6.53
2022-11-14T03:18:37.280Z,7.09
2022-11-14T03:21:04.991Z,7.10
2022-11-14T03:23:32.385Z,7.10
2022-11-14T03:25:59.965Z,7.21
2022-11-14T03:28:27.831Z,7.13
2022-11-14T03:30:55.924Z,7.00
2022-11-14T03:33:23.253Z,6.85
2022-11-14T03:35:50.573Z,6.37
2022-11-14T03:38:18.573Z,5.99
2022-11-14T03:40:46.031Z,6.05
2022-11-14T03:43:13.293Z,5.87
2022-11-14T03:45:40.554Z,5.42
2022-11-14T03:48:07.832Z,5.21
2022-11-14T03:50:35.268Z,4.91
2022-11-14T03:53:02.552Z,5.12
2022-11-14T03:55:29.868Z,5.20
2022-11-14T03:57:57.148Z,5.04
2022-11-14T04:00:24.522Z,4.61
2022-11-14T04:02:51.849Z,4.14
2022-11-14T04:05:19.096Z,4.44
2022-11-14T04:07:46.452Z,4.27
2022-11-14T04:10:13.724Z,4.09
2022-11-14T04:13:00.953Z,4.22
2022-11-14T04:15:28.191Z,4.15
2022-11-14T04:17:55.487Z,4.07
2022-11-14T04:20:22.804Z,4.36
2022-11-14T04:22:50.032Z,4.42
2022-11-14T04:25:17.390Z,3.99
2022-11-14T04:27:44.646Z,4.16
2022-11-14T04:30:11.921Z,3.86
2022-11-14T04:32:39.180Z,3.66
2022-11-14T04:35:06.523Z,3.98
2022-11-14T04:37:33.753Z,3.83
2022-11-14T04:40:01.532Z,3.70
2022-11-14T04:42:28.800Z,3.50
2022-11-14T04:44:56.129Z,3.70
2022-11-14T04:47:23.516Z,3.56
2022-11-14T04:49:50.864Z,3.45
2022-11-14T04:52:18.504Z,3.48
2022-11-14T04:54:46.105Z,3.36
2022-11-14T04:57:13.715Z,3.54
2022-11-14T04:59:41.071Z,3.58
2022-11-14T05:02:08.727Z,3.47
2022-11-14T05:04:40.184Z,3.60
2022-11-14T05:07:07.880Z,3.58
2022-11-14T05:09:35.404Z,3.55
2022-11-14T05:12:02.712Z,3.55
2022-11-14T05:14:30.035Z,3.54
2022-11-14T05:16:57.349Z,3.74
2022-11-14T05:19:24.767Z,3.87
2022-11-14T05:21:52.647Z,3.92
2022-11-14T05:24:20.259Z,3.85
2022-11-14T05:26:47.622Z,3.41
2022-11-14T05:29:15.584Z,3.85
2022-11-14T05:31:42.866Z,3.83
2022-11-14T05:34:10.107Z,3.71
2022-11-14T05:36:37.391Z,3.91
2022-11-14T05:39:04.747Z,3.66
2022-11-14T05:41:32.063Z,3.81
2022-11-14T05:43:59.343Z,3.78
2022-11-14T05:46:26.572Z,3.62
2022-11-14T05:48:53.847Z,3.62
2022-11-14T05:51:21.072Z,3.94
2022-11-14T05:53:48.347Z,3.81
2022-11-14T05:56:15.597Z,3.81
2022-11-14T05:58:42.859Z,3.44
2022-11-14T06:01:10.323Z,3.55
2022-11-14T06:03:37.759Z,3.57
2022-11-14T06:06:05.855Z,3.38
2022-11-14T06:08:33.674Z,3.29
2022-11-14T06:11:01.361Z,3.36
2022-11-14T06:13:28.740Z,3.26
2022-11-14T06:15:56.458Z,3.13
2022-11-14T06:18:27.737Z,3.17
2022-11-14T06:20:55.313Z,3.14
2022-11-14T06:23:24.903Z,3.16
2022-11-14T06:25:52.403Z,3.12
2022-11-14T06:28:20.092Z,3.23
2022-11-14T06:30:47.653Z,3.10
2022-11-14T06:33:15.433Z,3.17
2022-11-14T06:35:43.481Z,2.91
2022-11-14T06:38:13.833Z,2.87
2022-11-14T06:40:41.258Z,3.02
2022-11-14T06:43:08.844Z,2.69
2022-11-14T06:45:36.312Z,2.82
2022-11-14T06:48:04.161Z,3.11
2022-11-14T06:50:31.508Z,2.84
2022-11-14T06:52:58.912Z,2.81
2022-11-14T06:55:26.313Z,2.56
2022-11-14T06:57:53.975Z,2.69
2022-11-14T07:00:21.758Z,2.63
2022-11-14T07:02:49.673Z,2.59
2022-11-14T07:05:17.499Z,3.08
2022-11-14T07:07:45.351Z,2.84
2022-11-14T07:10:12.699Z,2.84
2022-11-14T07:12:40.072Z,2.67
2022-11-14T07:15:07.719Z,2.61
2022-11-14T07:17:47.494Z,2.75
2022-11-14T07:20:14.927Z,2.78
2022-11-14T07:22:42.284Z,2.86
2022-11-14T07:25:09.750Z,2.62
2022-11-14T07:27:37.192Z,2.71
2022-11-14T07:30:04.645Z,2.71
2022-11-14T07:32:32.327Z,2.74
2022-11-14T07:35:02.289Z,2.86
2022-11-14T07:37:32.470Z,2.99
2022-11-14T07:40:00.036Z,2.82
2022-11-14T07:42:27.674Z,2.76
2022-11-14T07:44:55.570Z,2.76
2022-11-14T07:47:23.006Z,2.67
2022-11-14T07:49:50.379Z,2.68
2022-11-14T07:52:18.118Z,2.74
2022-11-14T07:54:45.698Z,2.52
2022-11-14T07:57:13.119Z,2.67
2022-11-14T07:59:40.784Z,2.89
2022-11-14T08:02:08.683Z,2.68
2022-11-14T08:04:36.253Z,2.82
2022-11-14T08:07:04.061Z,2.92
2022-11-14T08:09:31.650Z,2.86
2022-11-14T08:12:11.431Z,2.82
2022-11-14T08:14:39.173Z,2.55
2022-11-14T08:17:06.960Z,2.38
2022-11-14T08:19:34.300Z,2.14
2022-11-14T08:22:01.553Z,2.08
2022-11-14T08:24:28.851Z,2.14
2022-11-14T08:26:56.168Z,2.12
2022-11-14T08:29:23.813Z,2.17
2022-11-14T08:31:53.516Z,2.11
2022-11-14T08:34:24.812Z,2.36
2022-11-14T08:36:52.425Z,1.98
2022-11-14T08:39:19.961Z,2.02
2022-11-14T08:41:47.750Z,1.91
2022-11-14T08:44:15.611Z,1.97
2022-11-14T08:46:42.934Z,1.81
2022-11-14T08:49:11.472Z,1.92
2022-11-14T08:51:39.079Z,1.88
2022-11-14T08:54:06.652Z,1.95
2022-11-14T08:56:34.197Z,2.05
2022-11-14T08:59:01.847Z,1.76
2022-11-14T09:01:29.714Z,2.01
2022-11-14T09:03:59.969Z,2.02
2022-11-14T09:06:27.950Z,2.07
2022-11-14T09:08:55.303Z,2.25
2022-11-14T09:11:22.802Z,2.18
2022-11-14T09:13:54.411Z,2.14
2022-11-14T09:16:21.847Z,2.42
2022-11-14T09:18:49.201Z,2.37
2022-11-14T09:21:16.866Z,2.68
2022-11-14T09:23:44.607Z,2.60
2022-11-14T09:26:12.524Z,2.75
2022-11-14T09:28:39.969Z,2.62
2022-11-14T09:31:09.657Z,2.55
2022-11-14T09:33:39.502Z,2.63
2022-11-14T09:36:07.284Z,2.77
2022-11-14T09:38:38.501Z,2.62
2022-11-14T09:41:06.687Z,2.68
2022-11-14T09:43:45.403Z,2.68
2022-11-14T09:46:13.076Z,2.70
2022-11-14T09:48:40.533Z,2.82
2022-11-14T09:51:24.437Z,2.58
2022-11-14T09:53:51.850Z,2.94
2022-11-14T09:56:19.788Z,2.64
2022-11-14T09:59:00.764Z,2.92
2022-11-14T10:01:28.351Z,2.85
2022-11-14T10:03:55.989Z,2.44
2022-11-14T10:06:37.395Z,2.41
2022-11-14T10:09:04.924Z,2.67
2022-11-14T10:11:32.498Z,2.49
2022-11-14T10:14:04.882Z,2.81
2022-11-14T10:16:32.446Z,2.46
2022-11-14T10:19:00.209Z,2.66
2022-11-14T10:21:34.349Z,2.68
2022-11-14T10:24:02.273Z,2.86
2022-11-14T10:26:29.904Z,2.69
2022-11-14T10:28:57.606Z,2.53
2022-11-14T10:31:25.491Z,2.41
2022-11-14T10:33:52.930Z,2.64
2022-11-14T10:36:20.605Z,2.51
2022-11-14T10:38:48.550Z,2.60
2022-11-14T10:41:34.632Z,2.81
2022-11-14T10:44:02.314Z,2.59
2022-11-14T10:46:29.580Z,2.46
2022-11-14T10:49:00.170Z,2.51
2022-11-14T10:51:28.073Z,2.55
2022-11-14T10:53:55.328Z,2.26
2022-11-14T10:56:22.920Z,2.59
2022-11-14T10:58:50.718Z,2.54
2022-11-14T11:01:18.823Z,2.41
2022-11-14T11:03:46.403Z,2.35
2022-11-14T11:06:14.153Z,2.56
2022-11-14T11:08:43.631Z,2.46
2022-11-14T11:11:11.581Z,2.41
2022-11-14T11:13:39.091Z,2.29
2022-11-14T11:16:06.682Z,2.28
2022-11-14T11:18:34.508Z,2.49
2022-11-14T11:21:02.096Z,2.39
2022-11-14T11:23:29.536Z,2.24
2022-11-14T11:25:57.084Z,2.06
2022-11-14T11:28:24.779Z,2.37
2022-11-14T11:30:54.454Z,2.28
2022-11-14T11:33:22.119Z,2.23
2022-11-14T11:35:49.588Z,2.23
2022-11-14T11:38:17.347Z,2.15
2022-11-14T11:40:44.794Z,2.17
2022-11-14T11:46:01.406Z,1.90
2022-11-14T11:48:29.124Z,1.92
2022-11-14T11:50:56.558Z,2.13
2022-11-14T11:53:24.090Z,1.95
2022-11-14T11:55:51.968Z,1.84
2022-11-14T11:58:19.631Z,1.75
2022-11-14T12:00:47.420Z,1.88
2022-11-14T12:03:21.496Z,1.83
2022-11-14T12:05:49.300Z,1.76
2022-11-14T12:08:21.163Z,1.75
2022-11-14T12:10:57.354Z,1.70
2022-11-14T12:13:25.059Z,1.92
2022-11-14T12:15:52.931Z,1.51
2022-11-14T12:18:25.589Z,1.39
2022-11-14T12:20:53.162Z,1.49
2022-11-14T12:23:20.845Z,1.52
2022-11-14T12:25:48.214Z,1.48
2022-11-14T12:28:15.547Z,1.31
2022-11-14T12:30:42.843Z,1.33
2022-11-14T12:33:10.260Z,1.24
2022-11-14T12:35:37.514Z,1.26
2022-11-14T12:38:05.008Z,1.28
2022-11-14T12:40:32.541Z,1.29
2022-11-14T12:43:00.175Z,1.19
2022-11-14T12:45:27.555Z,1.52
2022-11-14T12:47:54.846Z,1.34
2022-11-14T12:50:29.400Z,1.25
2022-11-14T12:52:57.018Z,1.36
2022-11-14T12:55:24.635Z,1.37
2022-11-14T12:57:52.416Z,1.25
2022-11-14T13:00:19.863Z,1.36
2022-11-14T13:02:48.562Z,1.51
2022-11-14T13:05:16.309Z,1.52
2022-11-14T13:07:56.320Z,1.48
2022-11-14T13:10:23.922Z,1.32
2022-11-14T13:12:51.807Z,1.58
2022-11-14T13:15:20.799Z,1.31
2022-11-14T13:17:48.065Z,1.19
2022-11-14T13:20:15.664Z,1.08
2022-11-14T13:22:43.050Z,1.13
2022-11-14T13:25:19.281Z,1.07
2022-11-14T13:30:34.588Z,1.06
2022-11-14T13:33:03.395Z,1.00
2022-11-14T13:35:31.271Z,0.97
2022-11-14T13:37:58.664Z,0.98
2022-11-14T13:40:26.195Z,1.12
2022-11-14T13:42:58.622Z,1.03
2022-11-14T13:45:26.044Z,1.19
2022-11-14T13:47:53.689Z,1.22
2022-11-14T13:50:22.344Z,1.34
2022-11-14T13:52:50.148Z,1.50
2022-11-14T13:55:17.846Z,1.50
2022-11-14T13:57:45.346Z,1.87
2022-11-14T14:00:18.453Z,2.04
2022-11-14T14:02:47.702Z,2.31
2022-11-14T14:05:15.533Z,2.36
2022-11-14T14:07:43.179Z,2.35
2022-11-14T14:10:15.595Z,2.34
2022-11-14T14:12:43.335Z,2.29
2022-11-14T14:15:10.719Z,2.40
2022-11-14T14:17:38.540Z,2.30
2022-11-14T14:20:06.273Z,2.38
2022-11-14T14:22:33.837Z,2.66
2022-11-14T14:25:01.638Z,2.47
2022-11-14T14:27:29.154Z,2.48
2022-11-14T14:30:02.381Z,2.49
2022-11-14T14:32:51.375Z,2.40
2022-11-14T14:35:40.889Z,2.38
2022-11-14T14:38:28.992Z,2.46
2022-11-14T14:41:16.787Z,2.44
2022-11-14T14:44:04.356Z,2.17
2022-11-14T14:46:51.907Z,1.95
2022-11-14T14:49:39.489Z,1.76
2022-11-14T14:52:27.045Z,1.71
2022-11-14T14:55:14.621Z,1.58
2022-11-14T14:58:02.158Z,1.52
2022-11-14T15:00:49.790Z,1.69
2022-11-14T15:03:37.400Z,1.43
2022-11-14T15:06:24.974Z,1.69
2022-11-14T15:09:12.562Z,1.68
2022-11-14T15:12:00.157Z,1.67
2022-11-14T15:14:47.755Z,1.76
2022-11-14T15:17:36.091Z,1.61
2022-11-14T15:20:23.689Z,1.69
2022-11-14T15:22:51.716Z,1.66
2022-11-14T15:25:18.972Z,1.57
2022-11-14T15:27:46.503Z,1.70
2022-11-14T15:30:13.997Z,1.61
2022-11-14T15:32:41.841Z,1.49
2022-11-14T15:35:09.291Z,1.48
2022-11-14T15:37:36.670Z,1.37
2022-11-14T15:40:04.007Z,1.48
2022-11-14T15:42:31.298Z,1.48
2022-11-14T15:44:58.953Z,1.47
2022-11-14T15:47:27.063Z,1.60
2022-11-14T15:49:54.894Z,1.39
2022-11-14T15:52:22.557Z,1.32
2022-11-14T15:55:08.687Z,1.71
2022-11-14T15:57:36.595Z,1.65
2022-11-14T16:00:04.109Z,1.42
2022-11-14T16:02:31.539Z,1.38
2022-11-14T16:04:58.883Z,1.62
2022-11-14T16:07:26.398Z,1.76
2022-11-14T16:09:56.597Z,1.67
2022-11-14T16:12:24.219Z,1.57
2022-11-14T16:14:51.525Z,1.49
2022-11-14T16:17:19.029Z,1.48
2022-11-14T16:19:46.428Z,1.61
2022-11-14T16:22:13.849Z,1.76
2022-11-14T16:24:41.326Z,1.62
2022-11-14T16:27:08.984Z,1.92
2022-11-14T16:29:36.640Z,1.95
2022-11-14T16:32:04.057Z,1.80
2022-11-14T16:34:31.787Z,1.93
2022-11-14T16:36:59.007Z,1.72
2022-11-14T16:39:26.487Z,1.79
2022-11-14T16:41:53.991Z,1.90
2022-11-14T16:44:21.323Z,1.89
2022-11-14T16:46:48.731Z,1.73
2022-11-14T16:49:16.192Z,1.94
2022-11-14T16:51:48.936Z,1.87
2022-11-14T16:54:17.557Z,1.82
2022-11-14T16:56:45.001Z,1.93
2022-11-14T16:59:12.568Z,1.70
2022-11-14T17:01:40.105Z,1.92
2022-11-14T17:04:10.432Z,2.06
2022-11-14T17:06:37.921Z,1.86
2022-11-14T17:09:05.366Z,2.17
2022-11-14T17:11:32.811Z,1.85
2022-11-14T17:14:00.617Z,1.76
2022-11-14T17:16:28.148Z,1.60
2022-11-14T17:18:55.452Z,1.73
2022-11-14T17:21:23.276Z,1.65
2022-11-14T17:23:50.633Z,1.63
2022-11-14T17:26:18.490Z,1.56
2022-11-14T17:28:46.358Z,1.65
2022-11-14T17:31:14.058Z,1.56
2022-11-14T17:33:41.613Z,1.73
2022-11-14T17:36:09.062Z,1.54
2022-11-14T17:38:36.405Z,1.47
2022-11-14T17:41:03.782Z,1.58
2022-11-14T17:43:37.308Z,1.40
2022-11-14T17:46:09.889Z,1.56
2022-11-14T17:48:42.434Z,1.50
2022-11-14T17:51:10.023Z,1.35
2022-11-14T17:53:37.651Z,1.38
2022-11-14T17:56:04.951Z,1.49
2022-11-14T17:58:35.218Z,1.80
2022-11-14T18:01:02.563Z,1.58
2022-11-14T18:03:29.924Z,1.50
2022-11-14T18:05:57.395Z,1.38
2022-11-14T18:08:25.041Z,1.50
2022-11-14T18:10:52.340Z,1.38
2022-11-14T18:13:19.662Z,1.24
2022-11-14T18:15:47.083Z,1.19
2022-11-14T18:18:14.901Z,1.33
2022-11-14T18:20:42.530Z,1.20
2022-11-14T18:23:09.990Z,1.27
2022-11-14T18:25:37.870Z,1.28
2022-11-14T18:28:05.527Z,1.24
2022-11-14T18:30:41.475Z,1.10
2022-11-14T18:33:09.189Z,1.16
2022-11-14T18:35:36.434Z,1.15
2022-11-14T18:38:03.996Z,1.24
2022-11-14T18:40:31.622Z,1.21
2022-11-14T18:42:59.005Z,1.13
2022-11-14T18:45:26.660Z,1.11
2022-11-14T18:47:54.010Z,1.24
2022-11-14T18:50:21.358Z,1.11
2022-11-14T18:52:48.804Z,1.14
2022-11-14T18:55:16.381Z,1.13
2022-11-14T18:57:44.075Z,1.23
2022-11-14T19:00:11.386Z,1.17
2022-11-14T19:02:39.152Z,1.16
2022-11-14T19:05:06.630Z,1.15
2022-11-14T19:07:34.058Z,1.28
2022-11-14T19:10:01.343Z,1.36
2022-11-14T19:12:28.998Z,1.30
2022-11-14T19:14:56.303Z,1.32
2022-11-14T19:17:23.926Z,1.38
2022-11-14T19:19:51.384Z,1.38
2022-11-14T19:22:18.724Z,1.34
2022-11-14T19:24:46.312Z,1.57
2022-11-14T19:27:13.730Z,1.59
2022-11-14T19:29:42.046Z,1.51
2022-11-14T19:32:09.371Z,1.34
2022-11-14T19:34:36.967Z,1.54
2022-11-14T19:37:04.601Z,1.30
2022-11-14T19:39:31.900Z,1.56
2022-11-14T19:41:59.529Z,1.58
2022-11-14T19:44:26.888Z,1.96
2022-11-14T19:46:55.038Z,1.48
2022-11-14T19:49:22.833Z,1.53
2022-11-14T19:51:50.170Z,1.67
2022-11-14T19:54:17.741Z,1.69
2022-11-14T19:56:51.048Z,1.66
2022-11-14T19:59:23.106Z,1.76
2022-11-14T20:01:52.054Z,1.74
2022-11-14T20:04:19.660Z,1.64
2022-11-14T20:06:47.198Z,1.78
2022-11-14T20:09:14.888Z,1.73
2022-11-14T20:11:42.712Z,1.92
2022-11-14T20:14:11.062Z,2.23
2022-11-14T20:16:38.381Z,2.31
2022-11-14T20:19:05.687Z,2.15
2022-11-14T20:21:33.496Z,2.16
2022-11-14T20:24:01.144Z,2.01
2022-11-14T20:26:28.569Z,2.52
2022-11-14T20:29:13.972Z,2.37
2022-11-14T20:31:41.552Z,2.17
2022-11-14T20:34:09.309Z,2.19
2022-11-14T20:37:08.878Z,2.31
2022-11-14T20:39:25.550Z,2.26
2022-11-14T20:42:06.085Z,2.50
2022-11-14T20:44:33.463Z,2.71
2022-11-14T20:47:01.009Z,2.68
2022-11-14T20:49:28.680Z,2.56
2022-11-14T20:51:56.754Z,2.66
2022-11-14T20:54:24.395Z,2.64
2022-11-14T20:56:52.112Z,2.68
2022-11-14T20:59:20.056Z,2.92
2022-11-14T21:01:47.610Z,3.06
2022-11-14T21:04:15.304Z,3.13
2022-11-14T21:06:42.923Z,2.89
2022-11-14T21:09:10.614Z,2.97
2022-11-14T21:11:37.949Z,3.23
2022-11-14T21:14:05.606Z,3.37
2022-11-14T21:16:33.084Z,3.18
2022-11-14T21:19:05.455Z,3.11
2022-11-14T21:21:32.858Z,3.14
2022-11-14T21:24:00.659Z,3.34
2022-11-14T21:26:29.994Z,3.22
2022-11-14T21:28:57.688Z,3.60
2022-11-14T21:31:25.293Z,3.39
2022-11-14T21:33:52.737Z,3.53
2022-11-14T21:36:43.897Z,3.69
2022-11-14T21:39:10.208Z,3.72
2022-11-14T21:41:38.969Z,3.74
2022-11-14T21:44:06.357Z,3.92
2022-11-14T21:46:33.716Z,3.97
2022-11-14T21:49:01.150Z,3.95
2022-11-14T21:51:29.124Z,4.07
2022-11-14T21:53:56.580Z,3.93
2022-11-14T21:56:24.235Z,4.49
2022-11-14T21:58:51.795Z,4.29
2022-11-14T22:01:19.517Z,4.53
2022-11-14T22:03:58.113Z,4.85
2022-11-14T22:06:25.756Z,5.03
2022-11-14T22:08:53.311Z,5.08
2022-11-14T22:11:21.187Z,4.82
2022-11-14T22:13:50.860Z,5.26
2022-11-14T22:16:18.292Z,5.48
2022-11-14T22:18:45.912Z,5.03
2022-11-14T22:21:13.230Z,5.10
2022-11-14T22:23:40.913Z,4.97
2022-11-14T22:26:08.384Z,4.83
2022-11-14T22:28:37.019Z,4.95
2022-11-14T22:31:04.841Z,5.08
2022-11-14T22:33:32.996Z,5.11
2022-11-14T22:36:00.773Z,4.97
2022-11-14T22:38:28.030Z,4.91
2022-11-14T22:40:55.709Z,4.90
2022-11-14T22:43:23.355Z,5.28
2022-11-14T22:45:50.779Z,4.70
2022-11-14T22:48:18.259Z,4.93
2022-11-14T22:50:46.015Z,4.95
2022-11-14T22:53:23.952Z,4.99
2022-11-14T22:55:51.700Z,4.86
2022-11-14T22:58:19.497Z,5.26
2022-11-14T23:00:47.247Z,5.49
2022-11-14T23:03:20.119Z,5.41
2022-11-14T23:06:05.932Z,5.59
2022-11-14T23:08:33.496Z,5.51
2022-11-14T23:11:01.193Z,5.67
2022-11-14T23:13:28.829Z,5.83
2022-11-14T23:15:56.856Z,5.99
2022-11-14T23:18:24.440Z,5.94
2022-11-14T23:20:55.367Z,5.82
2022-11-14T23:23:22.741Z,5.96
2022-11-14T23:25:50.494Z,6.17
2022-11-14T23:28:17.846Z,5.61
2022-11-14T23:30:50.916Z,5.32
2022-11-14T23:33:18.392Z,5.05
2022-11-14T23:35:46.079Z,5.13
2022-11-14T23:38:13.699Z,5.03
2022-11-14T23:40:41.571Z,5.03
2022-11-14T23:43:08.961Z,4.93
2022-11-14T23:45:36.485Z,4.79
2022-11-14T23:48:04.380Z,4.81
2022-11-14T23:50:31.735Z,4.55
2022-11-14T23:52:59.525Z,4.83
2022-11-14T23:55:27.121Z,5.20
2022-11-14T23:57:57.880Z,5.11
